Delta Virtual Airport Information Service

Raleigh-Durham International Airport

ICAO: KRDU Country: United States
Latitude: 35.8776 Longitude: -78.7874
Latest Arrival : DALJUMP (CYUL-KRDU) Latest Departure : DAC1407 (KRDU-TXKF)


WX CaptureLIVE
Data provided by noaa.gov | Fetched at 11:23:56

METAR : KRDU 281551Z 24009KT 10SM BKN012 BKN025 BKN060 OVC250 26/23 A3010 RMK AO2 SLP189 T02560228

TAF : KRDU 281451Z 2815/2912 20007KT 6SM BR SCT005 BKN015 TEMPO 2815/2817 BKN005 FM281800 21007KT P6SM BKN025 FM282000 18008KT P6SM VCTS BKN040CB FM290000 18007KT P6SM BKN050 BKN250 FM290300 19006KT P6SM OVC015 FM290900 19005KT P6SM OVC004


Runway Data for KRDU
Data provided by openaviationdata.com

Runway ID Mag Var Hdg Length Elevation Surface ILS Freq ILS Id ILS Slope
05L -8 53° 10001 ft 435 ft Concrete 109.1 IGKK 3
05R -8 53° 7501 ft 435 ft Asphalt 109.5 IRDU 3
14 -8 143° 3570 ft 435 ft Asphalt -- -- --
23L -8 233° 7501 ft 435 ft Asphalt 108.5 ILEI 3
23R -8 233° 10001 ft 435 ft Concrete 111.7 IDMP 3
32 -8 323° 3570 ft 435 ft Asphalt -- -- --

Raleigh-Durham International Airport, United States
Use only for reference purposes



Not for navigational purposes.